createdAt,value
2023-03-16T00:02:17.616Z,95602.19
2023-03-16T00:04:47.252Z,95609.28
2023-03-16T00:07:14.989Z,95612.38
2023-03-16T00:09:41.784Z,95616.59
2023-03-16T00:12:16.064Z,95611.53
2023-03-16T00:14:44.397Z,95605.03
2023-03-16T00:17:20.090Z,95601.00
2023-03-16T00:19:46.843Z,95600.22
2023-03-16T00:22:14.824Z,95591.97
2023-03-16T00:24:45.624Z,95600.69
2023-03-16T00:27:14.785Z,95600.47
2023-03-16T00:29:49.340Z,95599.31
2023-03-16T00:32:17.992Z,95599.19
2023-03-16T00:34:45.629Z,95597.28
2023-03-16T00:37:15.364Z,95589.13
2023-03-16T00:39:43.011Z,95591.00
2023-03-16T00:42:14.440Z,95591.38
2023-03-16T00:44:44.233Z,95597.56
2023-03-16T00:47:14.314Z,95595.91
2023-03-16T00:49:42.843Z,95603.44
2023-03-16T00:52:14.616Z,95604.75
2023-03-16T00:54:43.146Z,95597.06
2023-03-16T00:57:12.095Z,95614.56
2023-03-16T00:59:38.746Z,95603.47
2023-03-16T01:02:07.471Z,95592.13
2023-03-16T01:04:35.774Z,95597.06
2023-03-16T01:07:06.376Z,95596.47
2023-03-16T01:09:36.958Z,95587.00
2023-03-16T01:12:09.159Z,95586.19
2023-03-16T01:14:36.043Z,95584.78
2023-03-16T01:17:06.383Z,95595.03
2023-03-16T01:19:34.066Z,95591.88
2023-03-16T01:22:00.592Z,95592.81
2023-03-16T01:24:27.124Z,95591.16
2023-03-16T01:26:54.250Z,95594.09
2023-03-16T01:29:20.965Z,95588.44
2023-03-16T01:31:50.055Z,95601.88
2023-03-16T01:34:18.510Z,95596.91
2023-03-16T01:36:48.112Z,95594.31
2023-03-16T01:39:16.596Z,95595.59
2023-03-16T01:41:47.018Z,95591.84
2023-03-16T01:44:16.515Z,95588.88
2023-03-16T01:46:44.292Z,95593.25
2023-03-16T01:49:23.806Z,95575.97
2023-03-16T01:52:02.540Z,95585.91
2023-03-16T01:54:34.974Z,95572.69
2023-03-16T01:57:07.359Z,95577.41
2023-03-16T01:59:47.917Z,95577.59
2023-03-16T02:02:19.018Z,95572.06
2023-03-16T02:05:13.961Z,95569.81
2023-03-16T02:07:46.756Z,95572.75
2023-03-16T02:10:16.856Z,95571.88
2023-03-16T02:12:44.059Z,95572.16
2023-03-16T02:15:13.901Z,95577.56
2023-03-16T02:17:43.810Z,95577.91
2023-03-16T02:20:12.612Z,95580.06
2023-03-16T02:22:43.888Z,95577.19
2023-03-16T02:25:12.712Z,95577.44
2023-03-16T02:27:39.201Z,95574.22
2023-03-16T02:30:11.583Z,95571.88
2023-03-16T02:32:49.012Z,95567.38
2023-03-16T02:35:15.615Z,95570.81
2023-03-16T02:37:42.462Z,95573.47
2023-03-16T02:40:29.626Z,95570.22
2023-03-16T02:43:15.047Z,95569.81
2023-03-16T02:45:51.510Z,95575.56
2023-03-16T02:48:52.743Z,95571.00
2023-03-16T02:51:20.021Z,95564.84
2023-03-16T02:53:46.643Z,95574.03
2023-03-16T02:56:13.907Z,95570.16
2023-03-16T02:58:40.808Z,95569.47
2023-03-16T03:01:12.312Z,95571.66
2023-03-16T03:03:40.042Z,95573.94
2023-03-16T03:06:06.759Z,95562.94
2023-03-16T03:08:35.963Z,95562.53
2023-03-16T03:11:02.741Z,95568.13
2023-03-16T03:13:29.389Z,95569.56
2023-03-16T03:15:56.138Z,95558.47
2023-03-16T03:18:25.403Z,95560.06
2023-03-16T03:20:53.056Z,95559.84
2023-03-16T03:23:20.120Z,95558.25
2023-03-16T03:25:47.920Z,95560.44
2023-03-16T03:28:15.361Z,95554.00
2023-03-16T03:30:42.339Z,95559.44
2023-03-16T03:33:09.306Z,95555.25
2023-03-16T03:35:36.046Z,95561.50
2023-03-16T03:38:02.647Z,95564.81
2023-03-16T03:40:30.019Z,95563.50
2023-03-16T03:43:01.456Z,95562.78
2023-03-16T03:45:29.302Z,95562.78
2023-03-16T03:47:56.453Z,95564.56
2023-03-16T03:50:24.011Z,95555.00
2023-03-16T03:52:57.504Z,95557.91
2023-03-16T03:55:24.572Z,95553.56
2023-03-16T03:57:51.097Z,95559.78
2023-03-16T04:00:20.872Z,95560.63
2023-03-16T04:02:48.067Z,95555.72
2023-03-16T04:05:22.961Z,95545.78
2023-03-16T04:07:55.042Z,95552.50
2023-03-16T04:10:21.646Z,95547.94
2023-03-16T04:12:48.178Z,95556.56
2023-03-16T04:15:14.804Z,95544.38
2023-03-16T04:17:59.272Z,95545.44
2023-03-16T04:20:26.269Z,95543.25
2023-03-16T04:22:58.294Z,95550.63
2023-03-16T04:25:27.550Z,95554.66
2023-03-16T04:27:54.589Z,95558.81
2023-03-16T04:30:23.990Z,95552.91
2023-03-16T04:32:54.457Z,95559.31
2023-03-16T04:35:22.212Z,95566.88
2023-03-16T04:37:52.960Z,95570.44
2023-03-16T04:40:24.447Z,95563.94
2023-03-16T04:42:59.545Z,95559.91
2023-03-16T04:45:26.661Z,95556.28
2023-03-16T04:47:56.561Z,95548.09
2023-03-16T04:50:23.222Z,95544.56
2023-03-16T04:52:53.168Z,95546.56
2023-03-16T04:55:20.663Z,95538.16
2023-03-16T04:57:47.408Z,95535.81
2023-03-16T05:00:21.402Z,95540.22
2023-03-16T05:02:56.259Z,95546.81
2023-03-16T05:05:22.900Z,95541.97
2023-03-16T05:07:49.539Z,95537.50
2023-03-16T05:10:19.090Z,95531.91
2023-03-16T05:12:47.332Z,95529.66
2023-03-16T05:15:14.690Z,95529.22
2023-03-16T05:17:43.003Z,95526.13
2023-03-16T05:20:15.796Z,95524.75
2023-03-16T05:22:48.092Z,95520.00
2023-03-16T05:25:23.063Z,95520.28
2023-03-16T05:27:54.324Z,95513.81
2023-03-16T05:30:28.959Z,95525.72
2023-03-16T05:32:58.428Z,95521.81
2023-03-16T05:35:27.979Z,95530.22
2023-03-16T05:37:59.179Z,95527.06
2023-03-16T05:40:26.487Z,95523.88
2023-03-16T05:43:04.342Z,95528.81
2023-03-16T05:45:34.402Z,95528.84
2023-03-16T05:48:09.446Z,95525.69
2023-03-16T05:50:42.375Z,95524.06
2023-03-16T05:53:09.257Z,95516.41
2023-03-16T05:55:37.949Z,95520.44
2023-03-16T05:58:06.963Z,95519.47
2023-03-16T06:00:35.935Z,95530.69
2023-03-16T06:03:13.099Z,95525.75
2023-03-16T06:05:39.787Z,95517.28
2023-03-16T06:08:06.921Z,95513.41
2023-03-16T06:10:33.513Z,95510.81
2023-03-16T06:13:00.777Z,95516.97
2023-03-16T06:15:30.452Z,95514.59
2023-03-16T06:17:59.396Z,95511.63
2023-03-16T06:20:26.220Z,95520.97
2023-03-16T06:22:53.128Z,95526.88
2023-03-16T06:25:19.842Z,95524.53
2023-03-16T06:27:49.010Z,95523.09
2023-03-16T06:30:17.720Z,95526.84
2023-03-16T06:32:45.790Z,95532.53
2023-03-16T06:35:13.247Z,95537.03
2023-03-16T06:37:45.086Z,95532.19
2023-03-16T06:40:24.646Z,95524.59
2023-03-16T06:42:51.482Z,95526.72
2023-03-16T06:45:22.053Z,95530.72
2023-03-16T06:47:49.594Z,95525.69
2023-03-16T06:50:16.349Z,95529.09
2023-03-16T06:52:43.695Z,95527.16
2023-03-16T06:55:12.385Z,95531.44
2023-03-16T06:57:42.047Z,95527.00
2023-03-16T07:00:15.262Z,95520.19
2023-03-16T07:02:43.473Z,95525.84
2023-03-16T07:05:14.371Z,95525.06
2023-03-16T07:07:42.712Z,95525.19
2023-03-16T07:10:14.489Z,95517.03
2023-03-16T07:12:42.275Z,95521.03
2023-03-16T07:15:09.870Z,95520.56
2023-03-16T07:17:36.860Z,95519.09
2023-03-16T07:20:05.898Z,95512.56
2023-03-16T07:22:33.284Z,95517.59
2023-03-16T07:25:01.367Z,95518.56
2023-03-16T07:27:29.565Z,95521.69
2023-03-16T07:29:57.520Z,95526.78
2023-03-16T07:32:24.287Z,95521.06
2023-03-16T07:34:51.013Z,95524.19
2023-03-16T07:37:21.771Z,95526.59
2023-03-16T07:39:52.014Z,95529.00
2023-03-16T07:42:20.090Z,95537.59
2023-03-16T07:45:09.765Z,95536.31
2023-03-16T07:47:36.610Z,95532.69
2023-03-16T07:50:16.714Z,95537.34
2023-03-16T07:52:44.254Z,95532.06
2023-03-16T07:55:11.763Z,95531.53
2023-03-16T07:57:39.769Z,95540.91
2023-03-16T08:00:07.816Z,95549.97
2023-03-16T08:02:40.208Z,95548.66
2023-03-16T08:05:10.881Z,95544.75
2023-03-16T08:07:39.483Z,95540.78
2023-03-16T08:10:12.200Z,95550.94
2023-03-16T08:13:04.571Z,95543.72
2023-03-16T08:15:35.030Z,95547.09
2023-03-16T08:18:10.116Z,95554.38
2023-03-16T08:20:36.785Z,95555.75
2023-03-16T08:23:03.605Z,95559.63
2023-03-16T08:25:37.018Z,95560.78
2023-03-16T08:28:09.393Z,95561.84
2023-03-16T08:30:36.404Z,95568.31
2023-03-16T08:33:23.025Z,95561.41
2023-03-16T08:35:51.515Z,95562.38
2023-03-16T08:38:19.224Z,95561.97
2023-03-16T08:40:48.421Z,95562.75
2023-03-16T08:43:17.939Z,95562.25
2023-03-16T08:45:46.192Z,95557.28
2023-03-16T08:48:14.776Z,95551.28
2023-03-16T08:50:44.665Z,95554.50
2023-03-16T08:53:13.694Z,95561.56
2023-03-16T08:55:44.116Z,95558.84
2023-03-16T08:58:12.318Z,95555.38
2023-03-16T09:00:39.857Z,95553.19
2023-03-16T09:03:06.888Z,95549.47
2023-03-16T09:05:34.028Z,95551.06
2023-03-16T09:08:01.533Z,95549.16
2023-03-16T09:10:28.907Z,95550.38
2023-03-16T09:12:55.654Z,95540.88
2023-03-16T09:15:22.196Z,95538.69
2023-03-16T09:17:48.985Z,95536.03
2023-03-16T09:20:22.666Z,95529.69
2023-03-16T09:22:54.513Z,95538.72
2023-03-16T09:25:21.128Z,95546.53
2023-03-16T09:27:47.669Z,95542.03
2023-03-16T09:30:15.247Z,95545.97
2023-03-16T09:32:41.977Z,95531.47
2023-03-16T09:35:09.103Z,95529.69
2023-03-16T09:37:45.104Z,95531.25
2023-03-16T09:40:28.588Z,95550.44
2023-03-16T09:43:20.702Z,95548.25
2023-03-16T09:45:53.406Z,95545.03
2023-03-16T09:48:21.544Z,95548.56
2023-03-16T09:50:49.820Z,95548.94
2023-03-16T09:53:29.295Z,95538.22
2023-03-16T09:56:01.886Z,95545.03
2023-03-16T09:58:28.470Z,95541.16
2023-03-16T10:01:26.102Z,95540.94
2023-03-16T10:04:07.751Z,95536.63
2023-03-16T10:06:42.948Z,95533.31
2023-03-16T10:09:38.118Z,95538.13
2023-03-16T10:12:07.233Z,95531.09
2023-03-16T10:15:00.632Z,95532.22
2023-03-16T10:17:34.869Z,95523.47
2023-03-16T10:20:08.885Z,95520.31
2023-03-16T10:22:39.203Z,95529.22
2023-03-16T10:25:24.024Z,95532.81
2023-03-16T10:27:51.663Z,95525.97
2023-03-16T10:30:33.871Z,95509.81
2023-03-16T10:33:05.542Z,95508.16
2023-03-16T10:35:46.259Z,95505.69
2023-03-16T10:38:58.191Z,95504.50
2023-03-16T10:41:32.922Z,95509.84
2023-03-16T10:44:21.931Z,95499.16
2023-03-16T10:47:03.261Z,95499.78
2023-03-16T10:49:36.444Z,95483.91
2023-03-16T10:52:14.315Z,95485.41
2023-03-16T10:54:47.730Z,95489.44
2023-03-16T10:57:21.490Z,95487.34
2023-03-16T10:59:53.828Z,95485.16
2023-03-16T11:02:24.927Z,95483.72
2023-03-16T11:04:53.013Z,95477.13
2023-03-16T11:07:24.071Z,95476.44
2023-03-16T11:09:55.481Z,95457.34
2023-03-16T11:12:27.459Z,95447.56
2023-03-16T11:14:54.591Z,95444.47
2023-03-16T11:17:37.332Z,95440.66
2023-03-16T11:20:17.256Z,95450.75
2023-03-16T11:22:48.365Z,95439.03
2023-03-16T11:25:25.547Z,95441.94
2023-03-16T11:28:09.008Z,95446.34
2023-03-16T11:31:01.403Z,95450.31
2023-03-16T11:33:31.102Z,95441.94
2023-03-16T11:36:20.287Z,95433.97
2023-03-16T11:39:17.001Z,95429.50
2023-03-16T11:41:58.838Z,95419.81
2023-03-16T11:44:57.355Z,95416.16
2023-03-16T11:48:02.240Z,95418.72
2023-03-16T11:50:52.593Z,95412.16
2023-03-16T11:53:35.366Z,95405.75
2023-03-16T11:56:18.646Z,95401.63
2023-03-16T11:58:51.161Z,95409.47
2023-03-16T12:01:34.010Z,95398.44
2023-03-16T12:04:29.723Z,95405.91
2023-03-16T12:07:25.846Z,95404.63
2023-03-16T12:10:23.637Z,95389.34
2023-03-16T12:13:30.757Z,95379.81
2023-03-16T12:16:04.726Z,95376.63
2023-03-16T12:18:53.145Z,95374.31
2023-03-16T12:21:25.587Z,95358.63
2023-03-16T12:24:00.282Z,95370.81
2023-03-16T12:26:31.485Z,95362.53
2023-03-16T12:29:00.612Z,95369.00
2023-03-16T12:31:53.415Z,95363.94
2023-03-16T12:35:18.579Z,95363.09
2023-03-16T12:37:49.242Z,95360.31
2023-03-16T12:40:33.739Z,95365.75
2023-03-16T12:43:12.592Z,95361.03
2023-03-16T12:45:46.211Z,95355.34
2023-03-16T12:48:25.064Z,95357.69
2023-03-16T12:50:55.653Z,95355.97
2023-03-16T12:53:51.708Z,95356.34
2023-03-16T12:56:21.391Z,95353.22
2023-03-16T12:58:50.425Z,95348.63
2023-03-16T13:01:20.782Z,95350.19
2023-03-16T13:03:50.678Z,95338.91
2023-03-16T13:06:20.499Z,95343.50
2023-03-16T13:08:52.773Z,95339.81
2023-03-16T13:11:19.440Z,95335.41
2023-03-16T13:14:12.606Z,95327.22
2023-03-16T13:16:39.797Z,95329.44
2023-03-16T13:19:29.775Z,95333.16
2023-03-16T13:22:28.495Z,95324.69
2023-03-16T13:25:00.639Z,95325.53
2023-03-16T13:27:30.617Z,95316.53
2023-03-16T13:29:59.903Z,95327.75
2023-03-16T13:32:31.578Z,95316.34
2023-03-16T13:35:00.608Z,95312.56
2023-03-16T13:37:29.739Z,95320.50
2023-03-16T13:39:59.722Z,95326.16
2023-03-16T13:42:32.421Z,95332.44
2023-03-16T13:45:08.193Z,95329.75
2023-03-16T13:47:35.017Z,95314.63
2023-03-16T13:50:01.551Z,95309.25
2023-03-16T13:52:34.247Z,95315.44
2023-03-16T13:55:03.554Z,95305.66
2023-03-16T13:57:35.668Z,95301.59
2023-03-16T14:00:27.564Z,95287.97
2023-03-16T14:02:57.181Z,95311.13
2023-03-16T14:05:30.310Z,95302.94
2023-03-16T14:07:59.353Z,95296.56
2023-03-16T14:10:32.116Z,95291.00
2023-03-16T14:13:10.496Z,95300.19
2023-03-16T14:15:38.564Z,95289.13
2023-03-16T14:18:13.848Z,95286.97
2023-03-16T14:20:41.708Z,95286.66
2023-03-16T14:23:21.746Z,95294.78
2023-03-16T14:25:49.601Z,95291.16
2023-03-16T14:28:29.492Z,95292.97
2023-03-16T14:31:03.868Z,95290.13
2023-03-16T14:33:37.594Z,95286.06
2023-03-16T14:36:13.322Z,95284.19
2023-03-16T14:38:42.943Z,95296.25
2023-03-16T14:41:17.412Z,95281.94
2023-03-16T14:43:51.542Z,95284.91
2023-03-16T14:46:29.357Z,95286.38
2023-03-16T14:49:24.587Z,95271.19
2023-03-16T14:51:53.797Z,95272.06
2023-03-16T14:54:23.807Z,95276.38
2023-03-16T14:56:53.162Z,95277.16
2023-03-16T14:59:20.362Z,95275.63
2023-03-16T15:01:49.518Z,95276.81
2023-03-16T15:04:19.824Z,95275.91
2023-03-16T15:06:47.320Z,95275.78
2023-03-16T15:09:39.126Z,95275.66
2023-03-16T15:12:34.694Z,95270.06
2023-03-16T15:15:17.316Z,95266.59
2023-03-16T15:17:48.771Z,95258.75
2023-03-16T15:20:21.420Z,95257.72
2023-03-16T15:22:51.004Z,95255.38
2023-03-16T15:25:20.487Z,95265.59
2023-03-16T15:27:48.237Z,95260.47
2023-03-16T15:30:24.345Z,95266.97
2023-03-16T15:32:51.296Z,95274.03
2023-03-16T15:35:18.424Z,95262.97
2023-03-16T15:37:45.101Z,95259.44
2023-03-16T15:40:16.047Z,95260.78
2023-03-16T15:42:43.684Z,95262.47
2023-03-16T15:45:14.386Z,95264.59
2023-03-16T15:47:42.264Z,95261.31
2023-03-16T15:50:15.537Z,95255.19
2023-03-16T15:52:46.044Z,95251.69
2023-03-16T15:55:37.516Z,95252.41
2023-03-16T15:58:05.379Z,95252.78
2023-03-16T16:00:37.928Z,95245.34
2023-03-16T16:03:06.630Z,95245.53
2023-03-16T16:05:33.927Z,95242.88
2023-03-16T16:08:00.542Z,95247.00
2023-03-16T16:10:28.581Z,95242.59
2023-03-16T16:12:56.635Z,95233.72
2023-03-16T16:15:30.591Z,95239.81
2023-03-16T16:18:19.671Z,95234.25
2023-03-16T16:20:44.562Z,95232.53
2023-03-16T16:23:11.191Z,95231.63
2023-03-16T16:25:41.398Z,95240.53
2023-03-16T16:28:18.533Z,95236.16
2023-03-16T16:30:46.176Z,95243.88
2023-03-16T16:33:27.313Z,95246.63
2023-03-16T16:35:55.729Z,95245.41
2023-03-16T16:38:23.133Z,95251.50
2023-03-16T16:40:51.523Z,95253.84
2023-03-16T16:43:32.458Z,95256.63
2023-03-16T16:46:01.380Z,95257.69
2023-03-16T16:48:36.662Z,95258.75
2023-03-16T16:51:04.730Z,95255.13
2023-03-16T16:53:31.325Z,95261.91
2023-03-16T16:55:57.889Z,95269.72
2023-03-16T16:58:25.181Z,95263.28
2023-03-16T17:00:56.121Z,95269.63
2023-03-16T17:03:28.438Z,95266.03
2023-03-16T17:05:57.881Z,95264.44
2023-03-16T17:08:25.368Z,95256.59
2023-03-16T17:10:53.321Z,95265.00
2023-03-16T17:13:40.057Z,95270.16
2023-03-16T17:16:09.616Z,95266.72
2023-03-16T17:18:36.202Z,95272.53
2023-03-16T17:21:04.915Z,95263.97
2023-03-16T17:23:37.016Z,95275.16
2023-03-16T17:26:17.834Z,95263.03
2023-03-16T17:28:52.883Z,95269.81
2023-03-16T17:31:25.513Z,95277.19
2023-03-16T17:33:53.734Z,95279.50
2023-03-16T17:36:21.531Z,95282.13
2023-03-16T17:38:48.276Z,95276.06
2023-03-16T17:41:27.479Z,95268.38
2023-03-16T17:43:57.017Z,95267.03
2023-03-16T17:46:26.448Z,95266.06
2023-03-16T17:48:54.483Z,95269.84
2023-03-16T17:51:22.953Z,95268.66
2023-03-16T17:53:49.596Z,95267.34
2023-03-16T17:56:19.114Z,95276.19
2023-03-16T17:58:47.832Z,95277.97
2023-03-16T18:01:15.658Z,95276.19
2023-03-16T18:03:44.298Z,95269.94
2023-03-16T18:06:17.477Z,95273.53
2023-03-16T18:08:45.774Z,95263.84
2023-03-16T18:11:18.522Z,95270.75
2023-03-16T18:13:45.665Z,95274.34
2023-03-16T18:16:19.678Z,95276.81
2023-03-16T18:18:46.638Z,95273.19
2023-03-16T18:21:23.068Z,95274.94
2023-03-16T18:23:50.124Z,95270.06
2023-03-16T18:26:18.037Z,95278.72
2023-03-16T18:28:45.641Z,95275.94
2023-03-16T18:31:30.892Z,95278.34
2023-03-16T18:34:03.449Z,95277.03
2023-03-16T18:36:32.728Z,95275.25
2023-03-16T18:39:03.639Z,95268.84
2023-03-16T18:41:36.055Z,95266.84
2023-03-16T18:44:24.030Z,95262.38
2023-03-16T18:46:52.817Z,95266.44
2023-03-16T18:49:29.477Z,95270.88
2023-03-16T18:51:56.188Z,95267.25
2023-03-16T18:54:24.333Z,95261.16
2023-03-16T18:56:51.633Z,95259.69
2023-03-16T18:59:18.295Z,95265.94
2023-03-16T19:01:45.560Z,95260.50
2023-03-16T19:04:32.637Z,95263.41
2023-03-16T19:06:59.544Z,95264.06
2023-03-16T19:09:31.691Z,95267.81
2023-03-16T19:11:58.723Z,95264.47
2023-03-16T19:14:32.901Z,95262.00
2023-03-16T19:16:59.453Z,95262.38
2023-03-16T19:19:27.286Z,95267.41
2023-03-16T19:22:18.581Z,95261.34
2023-03-16T19:24:52.382Z,95265.84
2023-03-16T19:27:23.870Z,95263.94
2023-03-16T19:29:52.230Z,95262.56
2023-03-16T19:32:20.831Z,95259.91
2023-03-16T19:34:47.785Z,95259.25
2023-03-16T19:37:15.411Z,95258.28
2023-03-16T19:39:43.551Z,95254.63
2023-03-16T19:42:21.323Z,95257.69
2023-03-16T19:44:49.882Z,95261.44
2023-03-16T19:47:33.248Z,95260.09
2023-03-16T19:50:00.705Z,95266.84
2023-03-16T19:52:30.710Z,95254.19
2023-03-16T19:54:57.264Z,95257.81
2023-03-16T19:57:24.032Z,95262.00
2023-03-16T19:59:55.421Z,95261.22
2023-03-16T20:02:35.508Z,95261.13
2023-03-16T20:05:02.175Z,95258.53
2023-03-16T20:07:29.011Z,95249.84
2023-03-16T20:09:57.124Z,95247.34
2023-03-16T20:12:27.999Z,95245.88
2023-03-16T20:14:56.414Z,95245.88
2023-03-16T20:17:28.417Z,95248.13
2023-03-16T20:19:57.085Z,95247.63
2023-03-16T20:22:27.158Z,95239.25
2023-03-16T20:24:54.717Z,95238.72
2023-03-16T20:27:22.888Z,95241.31
2023-03-16T20:29:50.085Z,95234.66
2023-03-16T20:32:27.943Z,95233.94
2023-03-16T20:34:54.626Z,95236.84
2023-03-16T20:37:32.174Z,95232.34
2023-03-16T20:39:59.662Z,95232.28
2023-03-16T20:42:30.828Z,95222.56
2023-03-16T20:44:57.939Z,95228.63
2023-03-16T20:47:25.896Z,95224.00
2023-03-16T20:49:55.014Z,95227.06
2023-03-16T20:52:25.319Z,95226.53
2023-03-16T20:54:52.544Z,95231.09
2023-03-16T20:57:22.706Z,95227.47
2023-03-16T20:59:51.492Z,95232.03
2023-03-16T21:02:31.867Z,95226.53
2023-03-16T21:05:00.229Z,95222.41
2023-03-16T21:07:27.182Z,95213.63
2023-03-16T21:09:53.842Z,95216.13
2023-03-16T21:12:32.848Z,95215.91
2023-03-16T21:15:02.485Z,95211.88
2023-03-16T21:17:31.248Z,95205.59
2023-03-16T21:19:58.609Z,95212.06
2023-03-16T21:22:31.151Z,95213.50
2023-03-16T21:24:58.592Z,95214.22
2023-03-16T21:27:31.127Z,95217.13
2023-03-16T21:30:01.849Z,95211.22
2023-03-16T21:32:28.796Z,95212.50
2023-03-16T21:34:56.644Z,95214.59
2023-03-16T21:37:27.801Z,95217.03
2023-03-16T21:39:54.615Z,95211.97
2023-03-16T21:42:22.076Z,95207.78
2023-03-16T21:44:48.613Z,95206.72
2023-03-16T21:47:21.085Z,95202.16
2023-03-16T21:49:47.737Z,95191.88
2023-03-16T21:52:23.716Z,95196.28
2023-03-16T21:54:51.762Z,95189.56
2023-03-16T21:57:19.690Z,95181.63
2023-03-16T21:59:46.513Z,95175.56
2023-03-16T22:02:22.803Z,95177.22
2023-03-16T22:04:50.656Z,95180.94
2023-03-16T22:07:17.918Z,95180.25
2023-03-16T22:09:44.446Z,95176.53
2023-03-16T22:12:12.659Z,95186.59
2023-03-16T22:14:39.854Z,95191.28
2023-03-16T22:17:08.469Z,95175.66
2023-03-16T22:19:35.193Z,95184.31
2023-03-16T22:22:01.910Z,95182.16
2023-03-16T22:24:31.000Z,95187.53
2023-03-16T22:26:58.122Z,95184.94
2023-03-16T22:29:30.070Z,95193.03
2023-03-16T22:32:04.238Z,95187.00
2023-03-16T22:34:43.624Z,95186.03
2023-03-16T22:37:15.585Z,95186.22
2023-03-16T22:39:42.209Z,95186.38
2023-03-16T22:42:38.341Z,95185.28
2023-03-16T22:45:18.693Z,95189.13
2023-03-16T22:47:47.594Z,95183.66
2023-03-16T22:50:16.516Z,95182.25
2023-03-16T22:52:46.187Z,95184.91
2023-03-16T22:55:22.493Z,95181.34
2023-03-16T22:58:01.478Z,95179.56
2023-03-16T23:00:28.731Z,95178.47
2023-03-16T23:02:57.490Z,95187.13
2023-03-16T23:05:27.345Z,95177.66
2023-03-16T23:07:54.209Z,95183.16
2023-03-16T23:10:25.509Z,95178.34
2023-03-16T23:12:54.046Z,95178.22
2023-03-16T23:15:24.580Z,95173.44
2023-03-16T23:17:51.789Z,95175.72
2023-03-16T23:20:21.543Z,95178.09
2023-03-16T23:22:48.125Z,95175.19
2023-03-16T23:25:15.479Z,95171.78
2023-03-16T23:27:42.733Z,95163.97
2023-03-16T23:30:21.899Z,95173.72
2023-03-16T23:32:50.228Z,95164.38
2023-03-16T23:35:26.348Z,95169.19
2023-03-16T23:37:53.469Z,95158.63
2023-03-16T23:40:21.655Z,95150.53
2023-03-16T23:42:48.718Z,95158.47
2023-03-16T23:45:28.084Z,95155.34
2023-03-16T23:47:58.494Z,95154.09
2023-03-16T23:50:31.382Z,95151.09
2023-03-16T23:52:58.210Z,95146.97
2023-03-16T23:55:24.793Z,95144.22
2023-03-16T23:57:51.416Z,95146.13
